createdAt,value
2023-02-23T00:57:29.402Z,100867.34
2023-02-23T00:59:59.880Z,100871.29
2023-02-23T01:02:33.291Z,100869.90
2023-02-23T01:05:11.493Z,100874.74
2023-02-23T01:07:41.577Z,100874.95
2023-02-23T01:10:25.153Z,100875.01
2023-02-23T01:12:55.576Z,100873.98
2023-02-23T01:15:28.516Z,100877.27
2023-02-23T01:17:58.422Z,100878.80
2023-02-23T01:20:28.882Z,100881.73
2023-02-23T01:22:58.381Z,100883.80
2023-02-23T01:25:31.463Z,100888.27
2023-02-23T01:28:02.292Z,100890.40
2023-02-23T01:30:32.751Z,100891.77
2023-02-23T01:33:04.246Z,100899.06
2023-02-23T01:35:35.274Z,100901.45
2023-02-23T01:38:05.285Z,100908.83
2023-02-23T01:40:37.958Z,100911.48
2023-02-23T01:43:12.504Z,100909.72
2023-02-23T01:45:44.246Z,100909.33
2023-02-23T01:48:21.047Z,100912.41
2023-02-23T01:51:03.047Z,100913.86
2023-02-23T01:53:34.983Z,100914.89
2023-02-23T01:56:15.478Z,100920.88
2023-02-23T01:58:49.447Z,100920.53
2023-02-23T02:01:19.440Z,100925.80
2023-02-23T02:03:59.191Z,100924.25
2023-02-23T02:06:32.223Z,100928.39
2023-02-23T02:09:11.226Z,100929.96
2023-02-23T02:11:44.798Z,100934.34
2023-02-23T02:14:17.420Z,100941.92
2023-02-23T02:17:14.111Z,100942.52
2023-02-23T02:19:46.917Z,100947.77
2023-02-23T02:22:39.422Z,100948.81
2023-02-23T02:25:21.327Z,100950.75
2023-02-23T02:28:09.672Z,100950.95
2023-02-23T02:31:20.277Z,100948.16
2023-02-23T02:34:19.701Z,100957.80
2023-02-23T02:37:09.034Z,100962.30
2023-02-23T02:39:47.228Z,100961.80
2023-02-23T02:42:23.198Z,100967.23
2023-02-23T02:45:11.194Z,100966.33
2023-02-23T02:47:53.496Z,100967.04
2023-02-23T02:50:41.142Z,100967.52
2023-02-23T02:53:15.732Z,100969.11
2023-02-23T02:55:45.221Z,100975.21
2023-02-23T02:58:18.565Z,100976.34
2023-02-23T03:01:08.635Z,100974.25
2023-02-23T03:03:59.052Z,100976.39
2023-02-23T03:06:54.374Z,100981.10
2023-02-23T03:09:52.272Z,100986.30
2023-02-23T03:12:49.752Z,100985.52
2023-02-23T03:15:57.208Z,100985.94
2023-02-23T03:19:05.093Z,100989.84
2023-02-23T03:22:04.603Z,100995.74
2023-02-23T03:24:59.033Z,100994.86
2023-02-23T03:27:56.533Z,100997.71
2023-02-23T03:31:14.612Z,101003.35
2023-02-23T03:34:25.611Z,101006.86
2023-02-23T03:37:22.270Z,101009.89
2023-02-23T03:40:16.336Z,101012.63
2023-02-23T03:43:04.594Z,101009.52
2023-02-23T03:46:00.477Z,101012.36
2023-02-23T03:48:49.143Z,101011.69
2023-02-23T03:51:37.260Z,101010.06
2023-02-23T03:54:38.172Z,101011.85
2023-02-23T03:57:27.266Z,101017.67
2023-02-23T04:00:18.347Z,101018.93
2023-02-23T04:03:10.113Z,101023.13
2023-02-23T04:06:00.139Z,101026.11
2023-02-23T04:08:54.373Z,101026.89
2023-02-23T04:11:56.562Z,101026.58
2023-02-23T04:15:07.993Z,101029.90
2023-02-23T04:17:39.238Z,101028.48
2023-02-23T04:20:09.963Z,101030.14
2023-02-23T04:22:40.864Z,101030.64
2023-02-23T04:25:12.402Z,101028.95
2023-02-23T04:27:44.477Z,101028.39
2023-02-23T04:30:13.762Z,101027.33
2023-02-23T04:32:44.885Z,101029.15
2023-02-23T04:35:18.860Z,101030.93
2023-02-23T04:37:49.652Z,101035.59
2023-02-23T04:40:19.161Z,101042.09
2023-02-23T04:42:49.898Z,101047.34
2023-02-23T04:45:19.421Z,101051.04
2023-02-23T04:47:48.719Z,101055.15
2023-02-23T04:50:19.135Z,101055.60
2023-02-23T04:52:49.147Z,101058.02
2023-02-23T04:55:23.476Z,101063.91
2023-02-23T04:57:57.989Z,101067.37
2023-02-23T05:00:30.154Z,101061.52
2023-02-23T05:03:00.118Z,101063.77
2023-02-23T05:05:30.913Z,101067.55
2023-02-23T05:08:01.754Z,101064.24
2023-02-23T05:10:38.639Z,101070.10
2023-02-23T05:13:10.094Z,101074.18
2023-02-23T05:15:41.066Z,101077.09
2023-02-23T05:18:13.505Z,101081.80
2023-02-23T05:20:47.915Z,101084.42
2023-02-23T05:23:17.414Z,101087.70
2023-02-23T05:25:48.234Z,101089.70
2023-02-23T05:28:20.679Z,101092.58
2023-02-23T05:30:50.755Z,101097.71
2023-02-23T05:33:23.743Z,101104.16
2023-02-23T05:35:52.724Z,101109.14
2023-02-23T05:38:23.592Z,101118.16
2023-02-23T05:41:15.806Z,101126.25
2023-02-23T05:43:47.205Z,101121.90
2023-02-23T05:46:19.200Z,101124.46
2023-02-23T05:48:58.353Z,101129.66
2023-02-23T05:51:28.372Z,101133.73
2023-02-23T05:53:58.013Z,101141.96
2023-02-23T05:56:28.129Z,101141.01
2023-02-23T05:58:59.173Z,101142.38
2023-02-23T06:01:33.286Z,101146.17
2023-02-23T06:04:06.495Z,101149.73
2023-02-23T06:06:38.706Z,101156.41
2023-02-23T06:09:12.596Z,101156.85
2023-02-23T06:11:43.152Z,101161.94
2023-02-23T06:14:13.175Z,101168.30
2023-02-23T06:16:49.083Z,101172.33
2023-02-23T06:19:19.559Z,101170.64
2023-02-23T06:21:51.497Z,101172.77
2023-02-23T06:24:22.403Z,101177.36
2023-02-23T06:26:52.559Z,101181.03
2023-02-23T06:29:24.428Z,101181.80
2023-02-23T06:31:54.233Z,101184.23
2023-02-23T06:34:23.778Z,101184.58
2023-02-23T06:36:55.836Z,101186.17
2023-02-23T06:39:32.214Z,101187.58
2023-02-23T06:42:01.475Z,101187.25
2023-02-23T06:44:31.695Z,101183.98
2023-02-23T06:47:04.614Z,101184.13
2023-02-23T06:49:34.192Z,101183.48
2023-02-23T06:52:06.252Z,101184.75
2023-02-23T06:54:38.952Z,101185.15
2023-02-23T06:57:10.552Z,101187.79
2023-02-23T06:59:42.335Z,101183.23
2023-02-23T07:02:14.375Z,101183.99
2023-02-23T07:04:44.569Z,101186.76
2023-02-23T07:07:14.852Z,101186.10
2023-02-23T07:09:45.371Z,101183.36
2023-02-23T07:12:19.488Z,101184.84
2023-02-23T07:14:49.049Z,101188.01
2023-02-23T07:17:19.499Z,101189.66
2023-02-23T07:22:39.901Z,101187.11
2023-02-23T07:25:11.605Z,101193.27
2023-02-23T07:27:43.326Z,101188.68
2023-02-23T07:30:14.257Z,101187.78
2023-02-23T07:32:47.019Z,101186.20
2023-02-23T07:35:19.892Z,101190.55
2023-02-23T07:37:51.185Z,101189.58
2023-02-23T07:40:21.067Z,101201.65
2023-02-23T07:42:50.296Z,101203.21
2023-02-23T07:45:22.228Z,101197.92
2023-02-23T07:47:53.146Z,101192.54
2023-02-23T07:50:26.700Z,101186.28
2023-02-23T07:52:56.026Z,101195.69
2023-02-23T07:55:25.510Z,101196.27
2023-02-23T07:57:56.100Z,101195.79
2023-02-23T08:00:27.496Z,101196.06
2023-02-23T08:03:03.368Z,101199.30
2023-02-23T08:05:34.180Z,101200.46
2023-02-23T08:08:05.111Z,101199.66
2023-02-23T08:10:39.388Z,101191.77
2023-02-23T08:13:17.687Z,101195.31
2023-02-23T08:15:47.164Z,101197.93
2023-02-23T08:18:16.574Z,101196.42
2023-02-23T08:20:46.236Z,101187.02
2023-02-23T08:23:20.473Z,101189.20
2023-02-23T08:25:49.993Z,101193.66
2023-02-23T08:28:23.303Z,101196.65
2023-02-23T08:30:53.970Z,101192.80
2023-02-23T08:33:25.582Z,101192.58
2023-02-23T08:35:54.912Z,101194.36
2023-02-23T08:38:25.333Z,101191.34
2023-02-23T08:40:55.629Z,101194.39
2023-02-23T08:43:25.582Z,101192.91
2023-02-23T08:45:56.526Z,101190.06
2023-02-23T08:48:27.731Z,101192.64
2023-02-23T08:51:00.285Z,101194.69
2023-02-23T08:53:30.693Z,101195.52
2023-02-23T08:56:03.733Z,101190.77
2023-02-23T08:58:34.030Z,101194.49
2023-02-23T09:01:05.541Z,101195.02
2023-02-23T09:03:39.787Z,101196.58
2023-02-23T09:06:17.994Z,101197.46
2023-02-23T09:08:48.770Z,101195.35
2023-02-23T09:11:20.259Z,101196.90
2023-02-23T09:13:50.317Z,101198.31
2023-02-23T09:16:20.347Z,101199.82
2023-02-23T09:18:49.630Z,101205.38
2023-02-23T09:21:27.223Z,101205.42
2023-02-23T09:23:58.369Z,101207.42
2023-02-23T09:26:30.029Z,101200.16
2023-02-23T09:29:00.432Z,101205.54
2023-02-23T09:31:32.860Z,101203.51
2023-02-23T09:34:02.752Z,101203.64
2023-02-23T09:36:35.427Z,101202.13
2023-02-23T09:39:07.780Z,101199.33
2023-02-23T09:41:41.091Z,101198.17
2023-02-23T09:44:40.556Z,101202.92
2023-02-23T09:47:39.109Z,101207.19
2023-02-23T09:50:25.378Z,101206.82
2023-02-23T09:53:00.907Z,101209.12
2023-02-23T09:55:31.955Z,101209.09
2023-02-23T09:58:23.245Z,101207.93
2023-02-23T10:01:30.757Z,101205.33
2023-02-23T10:04:08.577Z,101209.49
2023-02-23T10:06:42.019Z,101203.98
2023-02-23T10:09:41.754Z,101201.84
2023-02-23T10:12:18.756Z,101193.13
2023-02-23T10:15:07.566Z,101198.46
2023-02-23T10:17:53.455Z,101201.02
2023-02-23T10:20:47.371Z,101202.52
2023-02-23T10:23:34.036Z,101194.86
2023-02-23T10:26:03.722Z,101196.25
2023-02-23T10:28:37.089Z,101192.63
2023-02-23T10:31:31.900Z,101189.48
2023-02-23T10:34:06.450Z,101188.05
2023-02-23T10:36:40.295Z,101188.47
2023-02-23T10:39:10.134Z,101186.30
2023-02-23T10:41:41.194Z,101185.90
2023-02-23T10:44:30.236Z,101181.89
2023-02-23T10:47:09.221Z,101181.58
2023-02-23T10:49:48.624Z,101182.22
2023-02-23T10:52:42.275Z,101177.68
2023-02-23T10:55:26.420Z,101173.20
2023-02-23T10:58:17.452Z,101172.64
2023-02-23T11:01:01.779Z,101171.48
2023-02-23T11:03:33.722Z,101170.96
2023-02-23T11:06:04.692Z,101171.35
2023-02-23T11:08:37.276Z,101172.59
2023-02-23T11:11:16.931Z,101174.23
2023-02-23T11:13:49.517Z,101171.55
2023-02-23T11:16:27.694Z,101171.87
2023-02-23T11:19:02.139Z,101170.07
2023-02-23T11:21:39.352Z,101167.29
2023-02-23T11:24:32.798Z,101167.48
2023-02-23T11:27:07.416Z,101163.26
2023-02-23T11:29:47.386Z,101167.70
2023-02-23T11:32:20.036Z,101166.05
2023-02-23T11:35:15.889Z,101163.09
2023-02-23T11:37:47.628Z,101157.70
2023-02-23T11:40:23.772Z,101155.66
2023-02-23T11:43:19.611Z,101155.92
2023-02-23T11:45:52.772Z,101157.73
2023-02-23T11:48:32.331Z,101153.69
2023-02-23T11:51:02.560Z,101158.61
2023-02-23T11:53:41.129Z,101161.33
2023-02-23T11:56:13.523Z,101161.20
2023-02-23T11:58:56.881Z,101165.12
2023-02-23T12:01:54.196Z,101162.79
2023-02-23T12:04:38.973Z,101163.79
2023-02-23T12:07:44.936Z,101167.04
2023-02-23T12:10:27.119Z,101168.83
2023-02-23T12:13:28.616Z,101159.30
2023-02-23T12:16:03.091Z,101158.94
2023-02-23T12:18:58.094Z,101156.36
2023-02-23T12:21:39.964Z,101149.55
2023-02-23T12:24:28.378Z,101149.11
2023-02-23T12:27:18.971Z,101147.00
2023-02-23T12:30:49.755Z,101145.61
2023-02-23T12:33:23.112Z,101140.10
2023-02-23T12:36:11.319Z,101138.84
2023-02-23T12:39:02.090Z,101135.72
2023-02-23T12:41:47.169Z,101133.22
2023-02-23T12:44:30.788Z,101131.48
2023-02-23T12:47:04.991Z,101132.89
2023-02-23T12:49:48.663Z,101137.68
2023-02-23T12:52:20.832Z,101135.57
2023-02-23T12:54:50.075Z,101129.77
2023-02-23T12:57:26.133Z,101124.41
2023-02-23T12:59:59.580Z,101124.46
2023-02-23T13:02:49.260Z,101115.92
2023-02-23T13:05:51.124Z,101114.25
2023-02-23T13:08:51.954Z,101111.84
2023-02-23T13:11:40.874Z,101110.48
2023-02-23T13:14:23.387Z,101109.61
2023-02-23T13:17:14.119Z,101108.16
2023-02-23T13:19:55.381Z,101106.11
2023-02-23T13:22:27.978Z,101101.52
2023-02-23T13:24:59.931Z,101101.25
2023-02-23T13:27:38.634Z,101104.00
2023-02-23T13:30:13.057Z,101097.17
2023-02-23T13:32:43.420Z,101091.16
2023-02-23T13:35:21.785Z,101088.42
2023-02-23T13:38:14.532Z,101081.14
2023-02-23T13:40:48.287Z,101079.83
2023-02-23T13:43:40.718Z,101074.98
2023-02-23T13:46:59.693Z,101073.23
2023-02-23T13:49:49.810Z,101074.77
2023-02-23T13:52:27.628Z,101073.14
2023-02-23T13:54:59.110Z,101070.75
2023-02-23T13:57:28.524Z,101071.39
2023-02-23T13:59:58.205Z,101076.48
2023-02-23T14:02:34.913Z,101073.13
2023-02-23T14:05:17.330Z,101070.52
2023-02-23T14:07:49.485Z,101071.70
2023-02-23T14:10:23.158Z,101065.72
2023-02-23T14:13:18.767Z,101062.09
2023-02-23T14:16:15.349Z,101059.83
2023-02-23T14:18:55.559Z,101062.58
2023-02-23T14:21:57.362Z,101064.92
2023-02-23T14:24:27.763Z,101064.20
2023-02-23T14:27:05.494Z,101061.12
2023-02-23T14:30:08.698Z,101064.05
2023-02-23T14:32:41.486Z,101066.36
2023-02-23T14:35:38.540Z,101067.91
2023-02-23T14:38:08.689Z,101067.31
2023-02-23T14:40:43.153Z,101065.96
2023-02-23T14:43:38.800Z,101066.98
2023-02-23T14:46:19.711Z,101064.41
2023-02-23T14:49:10.684Z,101060.83
2023-02-23T14:51:43.089Z,101063.19
2023-02-23T14:54:19.094Z,101061.11
2023-02-23T14:56:57.093Z,101062.30
2023-02-23T14:59:52.654Z,101059.25
2023-02-23T15:02:25.401Z,101063.17
2023-02-23T15:04:55.212Z,101063.23
2023-02-23T15:07:32.562Z,101061.17
2023-02-23T15:10:11.818Z,101065.25
2023-02-23T15:12:41.141Z,101063.78
2023-02-23T15:15:18.712Z,101064.41
2023-02-23T15:17:50.669Z,101059.72
2023-02-23T15:20:32.983Z,101059.63
2023-02-23T15:23:05.035Z,101058.34
2023-02-23T15:25:40.954Z,101057.06
2023-02-23T15:28:25.784Z,101060.76
2023-02-23T15:31:13.142Z,101062.23
2023-02-23T15:33:43.628Z,101066.45
2023-02-23T15:36:23.500Z,101061.27
2023-02-23T15:38:57.768Z,101061.48
2023-02-23T15:41:33.678Z,101058.34
2023-02-23T15:44:21.820Z,101053.39
2023-02-23T15:46:58.744Z,101039.48
2023-02-23T15:49:38.183Z,101039.79
2023-02-23T15:52:12.521Z,101041.44
2023-02-23T15:54:56.140Z,101047.49
2023-02-23T15:57:32.454Z,101049.92
2023-02-23T16:00:12.193Z,101047.48
2023-02-23T16:02:42.459Z,101045.04
2023-02-23T16:05:22.457Z,101049.83
2023-02-23T16:08:09.327Z,101057.40
2023-02-23T16:10:46.951Z,101059.04
2023-02-23T16:13:22.536Z,101058.30
2023-02-23T16:15:55.233Z,101057.29
2023-02-23T16:18:39.076Z,101055.66
2023-02-23T16:21:13.181Z,101051.27
2023-02-23T16:23:46.338Z,101046.80
2023-02-23T16:26:26.230Z,101052.73
2023-02-23T16:29:00.928Z,101054.01
2023-02-23T16:32:05.218Z,101050.27
2023-02-23T16:34:37.939Z,101047.96
2023-02-23T16:37:19.733Z,101041.74
2023-02-23T16:39:49.891Z,101040.80
2023-02-23T16:42:36.596Z,101039.52
2023-02-23T16:45:07.961Z,101045.45
2023-02-23T16:47:44.741Z,101044.02
2023-02-23T16:50:21.119Z,101032.27
2023-02-23T16:52:54.403Z,101034.28
2023-02-23T16:55:28.081Z,101037.38
2023-02-23T16:57:59.839Z,101032.20
2023-02-23T17:00:31.444Z,101030.10
2023-02-23T17:03:03.490Z,101029.27
2023-02-23T17:05:35.659Z,101025.60
2023-02-23T17:08:07.027Z,101030.51
2023-02-23T17:10:38.480Z,101023.02
2023-02-23T17:13:20.809Z,101020.64
2023-02-23T17:15:52.279Z,101024.02
2023-02-23T17:18:32.788Z,101018.71
2023-02-23T17:21:12.278Z,101015.77
2023-02-23T17:23:52.448Z,101012.98
2023-02-23T17:26:26.133Z,101017.86
2023-02-23T17:28:56.320Z,101012.68
2023-02-23T17:31:34.952Z,101011.48
2023-02-23T17:34:06.571Z,101011.83
2023-02-23T17:36:38.012Z,101009.02
2023-02-23T17:39:11.283Z,101009.01
2023-02-23T17:41:43.972Z,101006.86
2023-02-23T17:44:14.892Z,101006.32
2023-02-23T17:46:45.271Z,101002.45
2023-02-23T17:49:15.055Z,101001.11
2023-02-23T17:51:46.190Z,100999.70
2023-02-23T17:54:18.136Z,100998.68
2023-02-23T17:56:49.934Z,100997.62
2023-02-23T17:59:21.129Z,101000.41
2023-02-23T18:01:52.597Z,100992.63
2023-02-23T18:04:22.281Z,100995.05
2023-02-23T18:06:53.271Z,100998.16
2023-02-23T18:09:25.370Z,101004.23
2023-02-23T18:12:04.339Z,101000.55
2023-02-23T18:14:39.557Z,101003.60
2023-02-23T18:17:11.380Z,100998.16
2023-02-23T18:19:47.602Z,100990.80
2023-02-23T18:22:19.277Z,100990.89
2023-02-23T18:24:50.034Z,100998.62
2023-02-23T18:27:20.452Z,100998.05
2023-02-23T18:29:56.088Z,100989.74
2023-02-23T18:32:29.473Z,100985.16
2023-02-23T18:35:09.471Z,100980.33
2023-02-23T18:37:45.127Z,100973.13
2023-02-23T18:40:29.804Z,100966.73
2023-02-23T18:43:01.058Z,100966.05
2023-02-23T18:45:32.524Z,100966.91
2023-02-23T18:48:03.685Z,100965.13
2023-02-23T18:50:39.560Z,100961.66
2023-02-23T18:53:12.571Z,100960.34
2023-02-23T18:55:45.794Z,100955.82
2023-02-23T18:58:15.618Z,100955.09
2023-02-23T19:00:45.431Z,100953.31
2023-02-23T19:03:19.530Z,100948.90
2023-02-23T19:05:55.776Z,100946.70
2023-02-23T19:08:25.499Z,100948.23
2023-02-23T19:10:58.817Z,100943.85
2023-02-23T19:13:29.775Z,100947.66
2023-02-23T19:16:06.891Z,100946.19
2023-02-23T19:18:40.195Z,100946.06
2023-02-23T19:21:11.289Z,100946.38
2023-02-23T19:23:44.934Z,100946.10
2023-02-23T19:26:18.443Z,100939.02
2023-02-23T19:28:57.428Z,100927.81
2023-02-23T19:31:27.288Z,100927.25
2023-02-23T19:33:57.951Z,100922.98
2023-02-23T19:36:31.092Z,100910.58
2023-02-23T19:39:16.496Z,100908.16
2023-02-23T19:41:47.954Z,100904.34
2023-02-23T19:44:19.029Z,100910.09
2023-02-23T19:46:50.373Z,100911.99
2023-02-23T19:49:20.158Z,100914.34
2023-02-23T19:51:53.068Z,100910.60
2023-02-23T19:54:27.667Z,100902.27
2023-02-23T20:00:40.418Z,100887.45
2023-02-23T20:03:30.611Z,100883.77
2023-02-23T20:06:00.383Z,100877.95
2023-02-23T20:08:31.328Z,100874.77
2023-02-23T20:11:12.781Z,100876.92
2023-02-23T20:13:42.757Z,100876.55
2023-02-23T20:16:15.596Z,100878.61
2023-02-23T20:18:48.534Z,100876.58
2023-02-23T20:21:20.109Z,100870.44
2023-02-23T20:23:50.881Z,100868.54
2023-02-23T20:26:29.710Z,100862.98
2023-02-23T20:29:00.431Z,100862.80
2023-02-23T20:31:31.584Z,100862.54
2023-02-23T20:34:05.297Z,100856.79
2023-02-23T20:36:36.335Z,100856.52
2023-02-23T20:39:12.207Z,100850.08
2023-02-23T20:41:46.000Z,100843.13
2023-02-23T20:44:16.008Z,100842.82
2023-02-23T20:46:47.565Z,100839.39
2023-02-23T20:49:19.517Z,100834.62
2023-02-23T20:51:50.506Z,100833.32
2023-02-23T20:54:22.126Z,100831.98
2023-02-23T20:56:59.842Z,100832.36
2023-02-23T20:59:34.192Z,100827.40
2023-02-23T21:02:07.325Z,100822.21
2023-02-23T21:04:39.509Z,100824.02
2023-02-23T21:07:10.636Z,100823.92
2023-02-23T21:09:50.447Z,100819.38
2023-02-23T21:12:20.652Z,100812.05
2023-02-23T21:14:53.587Z,100810.96
2023-02-23T21:17:24.353Z,100811.05
2023-02-23T21:19:54.235Z,100806.52
2023-02-23T21:22:26.818Z,100802.77
2023-02-23T21:24:57.239Z,100805.91
2023-02-23T21:27:31.399Z,100807.64
2023-02-23T21:30:06.089Z,100803.95
2023-02-23T21:32:42.706Z,100802.15
2023-02-23T21:35:15.434Z,100798.54
2023-02-23T21:37:48.540Z,100797.44
2023-02-23T21:40:21.523Z,100792.80
2023-02-23T21:42:52.332Z,100791.09
2023-02-23T21:45:24.236Z,100786.32
2023-02-23T21:47:54.626Z,100780.86
2023-02-23T21:50:25.694Z,100774.19
2023-02-23T21:52:59.185Z,100771.73
2023-02-23T21:55:29.903Z,100769.15
2023-02-23T21:58:04.448Z,100769.39
2023-02-23T22:00:36.444Z,100769.59
2023-02-23T22:03:11.505Z,100772.58
2023-02-23T22:05:45.324Z,100768.45
2023-02-23T22:08:18.872Z,100769.23
2023-02-23T22:10:50.835Z,100761.46
2023-02-23T22:13:21.961Z,100756.94
2023-02-23T22:15:52.649Z,100760.42
2023-02-23T22:18:25.336Z,100756.17
2023-02-23T22:21:00.506Z,100751.61
2023-02-23T22:23:36.584Z,100749.70
2023-02-23T22:26:07.184Z,100749.81
2023-02-23T22:28:37.709Z,100740.98
2023-02-23T22:31:12.557Z,100737.36
2023-02-23T22:33:45.384Z,100734.97
2023-02-23T22:36:19.755Z,100730.05
2023-02-23T22:38:50.797Z,100722.79
2023-02-23T22:41:22.298Z,100715.85
2023-02-23T22:43:53.438Z,100714.91
2023-02-23T22:46:24.027Z,100717.13
2023-02-23T22:48:54.556Z,100711.02
2023-02-23T22:51:25.447Z,100711.63
2023-02-23T22:53:56.249Z,100701.27
2023-02-23T22:56:26.001Z,100695.88
2023-02-23T22:58:56.714Z,100693.06
2023-02-23T23:01:30.236Z,100694.73
2023-02-23T23:04:02.207Z,100690.83
2023-02-23T23:06:34.067Z,100691.13
2023-02-23T23:09:08.354Z,100686.89
2023-02-23T23:11:38.765Z,100683.78
2023-02-23T23:14:10.956Z,100682.93
2023-02-23T23:16:53.694Z,100678.20
2023-02-23T23:19:26.630Z,100677.33
2023-02-23T23:21:56.472Z,100671.94
2023-02-23T23:24:28.327Z,100673.21
2023-02-23T23:27:09.039Z,100665.84
2023-02-23T23:29:43.391Z,100657.83
2023-02-23T23:32:20.384Z,100655.40
2023-02-23T23:34:51.484Z,100651.48
2023-02-23T23:37:23.350Z,100650.24
2023-02-23T23:40:00.280Z,100644.76
2023-02-23T23:42:31.072Z,100641.23
2023-02-23T23:45:01.451Z,100638.15
2023-02-23T23:47:35.467Z,100630.58
2023-02-23T23:50:15.612Z,100625.75
2023-02-23T23:52:46.675Z,100622.94
2023-02-23T23:55:18.593Z,100615.79
2023-02-23T23:57:49.964Z,100609.58
